createdAt,value
2019-04-06T11:35:32.539Z,35.42
2019-04-06T11:40:47.637Z,36.16
2019-04-06T11:46:11.939Z,36.19
2019-04-06T11:51:26.915Z,39.91
2019-04-06T11:56:44.815Z,38.19
2019-04-06T12:01:50.910Z,39.63
2019-04-06T12:07:06.565Z,41.58
2019-04-06T12:12:12.922Z,43.69
2019-04-06T12:17:19.026Z,49.54
2019-04-06T12:22:25.133Z,40.90
2019-04-06T12:27:46.206Z,47.19
2019-04-06T12:32:50.470Z,44.13
2019-04-06T12:37:56.570Z,44.40
2019-04-06T12:43:03.459Z,42.62
2019-04-06T12:48:12.154Z,44.59
2019-04-06T12:53:19.372Z,43.91
2019-04-06T12:58:26.254Z,45.17
2019-04-06T13:03:32.352Z,44.86
2019-04-06T13:08:47.729Z,43.93
2019-04-06T13:13:53.972Z,41.88
2019-04-06T13:19:05.868Z,43.13
2019-04-06T13:24:12.030Z,43.53
2019-04-06T13:29:33.383Z,41.64
2019-04-06T13:34:45.414Z,41.91
2019-04-06T13:40:00.135Z,42.06
2019-04-06T13:45:14.892Z,40.56
2019-04-06T13:50:39.457Z,44.20
2019-04-06T13:55:45.569Z,41.74
2019-04-06T14:00:57.392Z,41.97
2019-04-06T14:06:12.714Z,42.52
2019-04-06T14:11:24.779Z,42.91
2019-04-06T14:16:31.039Z,42.10
2019-04-06T14:21:35.418Z,41.56
2019-04-06T14:26:48.819Z,42.95
2019-04-06T14:32:10.210Z,42.66
2019-04-06T14:37:31.396Z,42.69
2019-04-06T14:42:40.120Z,41.96
2019-04-06T14:47:44.698Z,41.77
2019-04-06T14:52:53.279Z,42.49
2019-04-06T14:58:01.924Z,42.02
2019-04-06T15:03:26.319Z,41.70
2019-04-06T15:08:47.709Z,42.25
2019-04-06T15:14:05.406Z,42.96
2019-04-06T15:19:21.561Z,44.03
2019-04-06T15:24:44.087Z,43.30
2019-04-06T15:30:06.330Z,43.79
2019-04-06T15:35:12.436Z,44.55
2019-04-06T15:40:34.717Z,45.87
2019-04-06T15:45:48.142Z,47.03
2019-04-06T15:51:02.117Z,45.16
2019-04-06T15:56:11.187Z,46.81
2019-04-06T16:01:35.081Z,45.56
2019-04-06T16:06:57.539Z,45.51
2019-04-06T16:12:01.744Z,46.47
2019-04-06T16:17:10.563Z,46.96
2019-04-06T16:22:14.876Z,46.68
2019-04-06T16:27:27.908Z,47.70
2019-04-06T16:32:37.409Z,48.82
2019-04-06T16:37:46.792Z,48.63
2019-04-06T16:43:07.998Z,48.72
2019-04-06T16:48:14.088Z,49.17
2019-04-06T16:53:38.255Z,49.65
2019-04-06T16:59:00.597Z,49.90
2019-04-06T17:04:23.346Z,49.88
